Time;durP1;ratioP1;P1;durP2;ratioP2;P2;SDS_P1;SDS_P2;PMS_P1;PMS_P2;Temp;Humidity;BMP_temperature;BMP_pressure;BME280_temperature;BME280_humidity;BME280_pressure;Samples;Min_cycle;Max_cycle;Signal;HPM_P1;HPM_P2
2024/01/20 00:01:57;;;;;;;1999.90;999.90;;;;;;;6.29;74.15;95880.75;5114818;28;20056;-63
2024/01/20 00:04:26;;;;;;;1999.90;999.90;;;;;;;6.30;74.13;95898.88;5114750;28;20090;-70
2024/01/20 00:06:53;;;;;;;1999.90;999.90;;;;;;;6.37;74.23;95901.28;5114946;28;20043;-69
2024/01/20 00:09:21;;;;;;;1999.90;999.90;;;;;;;6.41;73.83;95902.91;5114673;28;20143;-64
2024/01/20 00:11:49;;;;;;;1999.90;999.90;;;;;;;6.37;73.94;95915.13;5114707;28;20055;-70
2024/01/20 00:14:16;;;;;;;1999.90;999.90;;;;;;;6.30;74.16;95918.81;5114492;28;20046;-67
2024/01/20 00:16:44;;;;;;;1999.90;999.90;;;;;;;6.32;74.17;95930.00;5114270;28;20096;-65
2024/01/20 00:19:12;;;;;;;1999.90;999.90;;;;;;;6.27;73.67;95921.50;5114635;28;20047;-65
2024/01/20 00:21:40;;;;;;;1999.90;999.90;;;;;;;6.20;73.68;95926.03;5114499;28;20046;-64
2024/01/20 00:24:08;;;;;;;1999.90;999.90;;;;;;;6.16;73.78;95929.63;5114586;28;20118;-64
2024/01/20 00:26:36;;;;;;;1999.90;999.90;;;;;;;6.06;73.54;95931.66;5114561;28;20058;-69
2024/01/20 00:29:03;;;;;;;1999.90;999.90;;;;;;;6.02;74.08;95940.41;5114403;28;20112;-65
2024/01/20 00:31:30;;;;;;;1999.90;999.90;;;;;;;6.02;73.64;95933.44;5114180;28;20648;-66
2024/01/20 00:33:57;;;;;;;1999.90;999.90;;;;;;;5.99;73.93;95950.88;5114302;28;20055;-65
2024/01/20 00:36:25;;;;;;;1999.90;999.90;;;;;;;5.98;73.49;95946.56;5114285;28;20039;-66
2024/01/20 00:38:54;;;;;;;1999.90;999.90;;;;;;;5.91;73.58;95943.31;5114127;28;20048;-67
2024/01/20 00:41:21;;;;;;;1999.90;999.90;;;;;;;5.89;73.96;95945.09;5114088;28;20079;-64
2024/01/20 00:43:48;;;;;;;1999.90;999.90;;;;;;;5.89;73.44;95934.69;5114552;28;20488;-64
2024/01/20 00:46:16;;;;;;;1999.90;999.90;;;;;;;5.84;73.94;95932.22;5113869;28;20051;-69
2024/01/20 00:48:43;;;;;;;1999.90;999.90;;;;;;;5.84;73.51;95934.00;5113972;28;20458;-66
2024/01/20 00:51:11;;;;;;;1999.90;999.90;;;;;;;5.77;73.50;95928.97;5114240;28;20048;-63
2024/01/20 00:53:38;;;;;;;1999.90;999.90;;;;;;;5.69;73.86;95938.75;5114189;28;20119;-69
2024/01/20 00:56:07;;;;;;;1999.90;999.90;;;;;;;5.64;74.03;95941.47;5113950;28;20053;-67
2024/01/20 00:58:34;;;;;;;1999.90;999.90;;;;;;;5.61;73.99;95946.72;5113866;28;20097;-66
2024/01/20 01:01:01;;;;;;;1999.90;999.90;;;;;;;5.49;74.67;95950.50;5113743;28;20505;-64
2024/01/20 01:03:28;;;;;;;1999.90;999.90;;;;;;;5.51;74.52;95943.53;5113815;28;20043;-64
2024/01/20 01:05:55;;;;;;;1999.90;999.90;;;;;;;5.51;74.64;95959.09;5113817;28;20077;-65
2024/01/20 01:08:23;;;;;;;1999.90;999.90;;;;;;;5.46;74.15;95957.50;5113887;28;20569;-66
2024/01/20 01:10:50;;;;;;;1999.90;999.90;;;;;;;5.44;74.21;95965.34;5113720;28;20047;-66
2024/01/20 01:13:19;;;;;;;1999.90;999.90;;;;;;;5.39;73.78;95968.06;5113854;28;20134;-68
2024/01/20 01:15:46;;;;;;;1999.90;999.90;;;;;;;5.36;73.58;95970.72;5113798;28;20044;-65
2024/01/20 01:18:13;;;;;;;1999.90;999.90;;;;;;;5.30;73.96;95958.78;5113676;28;20047;-62
2024/01/20 01:20:40;;;;;;;1999.90;999.90;;;;;;;5.22;73.66;95960.72;5113532;28;20059;-69
2024/01/20 01:23:08;;;;;;;1999.90;999.90;;;;;;;5.29;73.28;95953.63;5113641;28;20043;-68
2024/01/20 01:25:35;;;;;;;1999.90;999.90;;;;;;;5.27;73.26;95947.66;5113392;28;20055;-66
2024/01/20 01:28:02;;;;;;;1999.90;999.90;;;;;;;5.26;72.77;95935.53;5112588;28;20063;-66
2024/01/20 01:30:31;;;;;;;1999.90;999.90;;;;;;;5.22;72.51;95929.59;5113316;28;20069;-63
2024/01/20 01:32:58;;;;;;;1999.90;999.90;;;;;;;5.12;73.25;95931.56;5113648;28;20096;-67
2024/01/20 01:35:25;;;;;;;1999.90;999.90;;;;;;;5.16;72.87;95943.59;5113409;28;20039;-68
2024/01/20 01:37:52;;;;;;;1999.90;999.90;;;;;;;5.10;72.74;95948.94;5113643;28;20135;-68
2024/01/20 01:40:19;;;;;;;1999.90;999.90;;;;;;;5.10;73.20;95948.94;5113470;28;20047;-68
2024/01/20 01:42:47;;;;;;;1999.90;999.90;;;;;;;5.10;73.21;95956.72;5113438;28;20051;-67
2024/01/20 01:45:14;;;;;;;1999.90;999.90;;;;;;;5.10;72.63;95967.06;5113282;28;20075;-66
2024/01/20 01:47:43;;;;;;;1999.90;999.90;;;;;;;5.14;72.77;95975.63;5113337;28;20481;-68
2024/01/20 01:50:10;;;;;;;1999.90;999.90;;;;;;;5.06;72.70;95970.66;5113206;28;20047;-68
2024/01/20 01:52:38;;;;;;;1999.90;999.90;;;;;;;5.10;72.51;95974.00;5113281;28;20079;-66
2024/01/20 01:55:06;;;;;;;1999.90;999.90;;;;;;;5.09;72.52;95977.50;5113290;28;20075;-67
2024/01/20 01:57:33;;;;;;;1999.90;999.90;;;;;;;5.02;73.10;95969.00;5113351;28;20131;-67
2024/01/20 02:00:00;;;;;;;1999.90;999.90;;;;;;;4.95;73.19;95963.13;5113310;28;20109;-68
2024/01/20 02:02:27;;;;;;;1999.90;999.90;;;;;;;4.90;73.77;95964.97;5113033;28;20047;-67
2024/01/20 02:04:56;;;;;;;1999.90;999.90;;;;;;;4.89;73.59;95961.53;5113178;28;20486;-64
2024/01/20 02:07:23;;;;;;;1999.90;999.90;;;;;;;4.94;73.83;95977.00;5113086;28;20126;-69
2024/01/20 02:09:54;;;;;;;1999.90;999.90;;;;;;;4.96;73.31;95974.34;5112950;28;20059;-66
2024/01/20 02:12:22;;;;;;;1999.90;999.90;;;;;;;4.98;73.43;95983.78;5113187;28;20043;-67
2024/01/20 02:14:49;;;;;;;1999.90;999.90;;;;;;;5.05;72.90;95987.06;5112996;28;20554;-65
2024/01/20 02:17:16;;;;;;;1999.90;999.90;;;;;;;5.08;73.26;95997.38;5112976;28;20139;-64
2024/01/20 02:19:44;;;;;;;1999.90;999.90;;;;;;;5.09;72.86;96006.00;5113119;28;20067;-68
2024/01/20 02:22:14;;;;;;;1999.90;999.90;;;;;;;5.06;72.74;96004.34;5113020;28;20097;-67
2024/01/20 02:24:46;;;;;;;1999.90;999.90;;;;;;;5.10;72.67;96007.69;5113248;28;20568;-69
2024/01/20 02:27:13;;;;;;;1999.90;999.90;;;;;;;5.18;72.42;96018.75;5112960;28;20108;-70
2024/01/20 02:29:41;;;;;;;1999.90;999.90;;;;;;;5.24;72.36;96022.94;5112866;28;20090;-68
2024/01/20 02:32:08;;;;;;;1999.90;999.90;;;;;;;5.30;71.86;96026.22;5112907;28;20096;-70
2024/01/20 02:34:36;;;;;;;1999.90;999.90;;;;;;;5.30;71.66;96022.78;5112857;28;20058;-69
2024/01/20 02:37:04;;;;;;;1999.90;999.90;;;;;;;5.36;70.58;96032.16;5112981;28;20048;-68
2024/01/20 02:39:32;;;;;;;1999.90;999.90;;;;;;;5.38;71.14;96038.13;5115843;28;20059;-69
2024/01/20 02:41:59;;;;;;;1999.90;999.90;;;;;;;5.35;70.37;96028.69;5116542;28;20054;-64
2024/01/20 02:44:26;;;;;;;1999.90;999.90;;;;;;;5.41;70.72;96031.13;5116379;28;20056;-69
2024/01/20 02:46:53;;;;;;;1999.90;999.90;;;;;;;5.44;69.80;96028.47;5116427;28;20071;-66
2024/01/20 02:49:20;;;;;;;1999.90;999.90;;;;;;;5.46;68.55;96027.56;5116241;28;20142;-65
2024/01/20 02:51:47;;;;;;;1999.90;999.90;;;;;;;5.40;68.14;96028.56;5116064;28;20054;-67
2024/01/20 02:54:14;;;;;;;1999.90;999.90;;;;;;;5.39;68.66;96025.13;5116320;28;20489;-66
2024/01/20 02:56:43;;;;;;;1999.90;999.90;;;;;;;5.39;68.26;96024.28;5116377;28;20048;-65
2024/01/20 02:59:10;;;;;;;1999.90;999.90;;;;;;;5.39;68.76;96029.47;5116073;28;20051;-67
2024/01/20 03:01:37;;;;;;;1999.90;999.90;;;;;;;5.31;68.13;96027.06;5116030;28;20043;-66
2024/01/20 03:04:04;;;;;;;1999.90;999.90;;;;;;;5.31;68.34;96027.94;5116186;28;20118;-66
2024/01/20 03:06:31;;;;;;;1999.90;999.90;;;;;;;5.39;67.82;96034.66;5116136;28;20047;-67
2024/01/20 03:08:58;;;;;;;1999.90;999.90;;;;;;;5.30;67.85;96030.56;5116079;28;20079;-64
2024/01/20 03:11:25;;;;;;;1999.90;999.90;;;;;;;5.27;67.08;96041.00;5115960;28;20558;-66
2024/01/20 03:13:53;;;;;;;1999.90;999.90;;;;;;;5.22;67.11;96051.50;5116221;28;20081;-59
2024/01/20 03:16:20;;;;;;;1999.90;999.90;;;;;;;5.19;66.75;96064.53;5115801;28;20051;-67
2024/01/20 03:18:47;;;;;;;1999.90;999.90;;;;;;;5.04;66.02;96073.53;5115755;28;20052;-65
2024/01/20 03:21:14;;;;;;;1999.90;999.90;;;;;;;5.07;66.09;96078.63;5115813;28;20105;-68
2024/01/20 03:23:42;;;;;;;1999.90;999.90;;;;;;;5.06;66.44;96090.75;5115880;28;20044;-69
2024/01/20 03:26:10;;;;;;;1999.90;999.90;;;;;;;5.02;66.31;96103.81;5115671;28;20043;-68
2024/01/20 03:28:37;;;;;;;1999.90;999.90;;;;;;;4.98;66.36;96108.22;5115850;28;20047;-65
2024/01/20 03:31:06;;;;;;;1999.90;999.90;;;;;;;4.89;66.78;96113.63;5115553;28;20472;-68
2024/01/20 03:33:33;;;;;;;1999.90;999.90;;;;;;;4.89;66.95;96119.66;5115632;28;20126;-67
2024/01/20 03:36:00;;;;;;;1999.90;999.90;;;;;;;4.92;67.21;96123.91;5115602;28;20047;-65
2024/01/20 03:38:27;;;;;;;1999.90;999.90;;;;;;;4.84;65.97;96128.44;5115411;28;20083;-67
2024/01/20 03:40:54;;;;;;;1999.90;999.90;;;;;;;4.71;65.56;96125.22;5115529;28;20130;-65
2024/01/20 03:43:21;;;;;;;1999.90;999.90;;;;;;;4.67;66.00;96127.88;5115311;28;20523;-63
2024/01/20 03:45:48;;;;;;;1999.90;999.90;;;;;;;4.57;66.07;96131.53;5115184;28;20394;-68
2024/01/20 03:48:16;;;;;;;1999.90;999.90;;;;;;;4.59;66.59;96136.69;5115368;28;20100;-65
2024/01/20 03:50:43;;;;;;;1999.90;999.90;;;;;;;4.57;66.39;96148.84;5114159;28;20047;-64
2024/01/20 03:53:10;;;;;;;1999.90;999.90;;;;;;;4.50;66.36;96145.50;5115045;28;20044;-64
2024/01/20 03:55:38;;;;;;;1999.90;999.90;;;;;;;4.46;66.06;96144.75;5115112;28;20047;-64
2024/01/20 03:58:05;;;;;;;1999.90;999.90;;;;;;;4.41;66.59;96144.81;5114964;28;20047;-66
2024/01/20 04:00:32;;;;;;;1999.90;999.90;;;;;;;4.37;66.03;96142.31;5114930;28;20040;-66
2024/01/20 04:02:59;;;;;;;1999.90;999.90;;;;;;;4.27;66.50;96144.22;5115310;28;20048;-65
2024/01/20 04:05:27;;;;;;;1999.90;999.90;;;;;;;4.22;66.70;96151.25;5115017;28;20076;-66
2024/01/20 04:07:54;;;;;;;1999.90;999.90;;;;;;;4.19;67.11;96149.56;5114892;28;20057;-65
2024/01/20 04:10:21;;;;;;;1999.90;999.90;;;;;;;4.16;67.43;96147.03;5114662;28;20087;-64
2024/01/20 04:12:48;;;;;;;1999.90;999.90;;;;;;;4.19;67.58;96164.25;5114819;28;20039;-65
2024/01/20 04:15:15;;;;;;;1999.90;999.90;;;;;;;4.17;67.20;96172.03;5114641;28;20043;-67
2024/01/20 04:17:42;;;;;;;1999.90;999.90;;;;;;;4.22;67.52;96185.75;5114885;28;20043;-67
2024/01/20 04:20:10;;;;;;;1999.90;999.90;;;;;;;4.19;67.79;96191.00;5114562;28;20055;-68
2024/01/20 04:22:39;;;;;;;1999.90;999.90;;;;;;;4.24;67.58;96198.69;5114755;28;20051;-66
2024/01/20 04:25:07;;;;;;;1999.90;999.90;;;;;;;4.23;66.99;96203.00;5114464;28;20147;-67
2024/01/20 04:27:40;;;;;;;1999.90;999.90;;;;;;;4.17;67.79;96203.09;5114315;28;20497;-70
2024/01/20 04:30:08;;;;;;;1999.90;999.90;;;;;;;4.16;67.56;96199.66;5114211;28;20516;-66
2024/01/20 04:32:35;;;;;;;1999.90;999.90;;;;;;;4.12;67.62;96204.94;5114570;28;20043;-69
2024/01/20 04:35:02;;;;;;;1999.90;999.90;;;;;;;4.09;67.19;96200.66;5114430;28;20138;-64
2024/01/20 04:37:29;;;;;;;1999.90;999.90;;;;;;;4.05;67.06;96217.13;5114513;28;20051;-64
2024/01/20 04:39:57;;;;;;;1999.90;999.90;;;;;;;3.96;67.06;96215.53;5114284;28;20154;-66
2024/01/20 04:42:24;;;;;;;1999.90;999.90;;;;;;;3.96;66.47;96225.03;5114237;28;20507;-69
2024/01/20 04:44:51;;;;;;;1999.90;999.90;;;;;;;3.83;66.28;96225.25;5114338;28;20048;-69
2024/01/20 04:47:18;;;;;;;1999.90;999.90;;;;;;;3.71;66.55;96228.91;5113967;28;20558;-68
2024/01/20 04:49:46;;;;;;;1999.90;999.90;;;;;;;3.61;66.92;96210.06;5114257;28;20044;-67
2024/01/20 04:52:13;;;;;;;1999.90;999.90;;;;;;;3.53;66.70;96223.09;5113768;28;20043;-67
2024/01/20 04:54:40;;;;;;;1999.90;999.90;;;;;;;3.44;67.35;96212.91;5114047;28;20100;-63
2024/01/20 04:57:08;;;;;;;1999.90;999.90;;;;;;;3.41;67.26;96210.38;5114027;28;20044;-67
2024/01/20 04:59:35;;;;;;;1999.90;999.90;;;;;;;3.38;67.80;96215.59;5113891;28;20048;-63
2024/01/20 05:02:03;;;;;;;1999.90;999.90;;;;;;;3.40;67.94;96209.50;5113803;28;20143;-65
2024/01/20 05:04:30;;;;;;;1999.90;999.90;;;;;;;3.35;67.96;96213.03;5113762;28;20085;-66
2024/01/20 05:06:57;;;;;;;1999.90;999.90;;;;;;;3.33;68.25;96205.31;5113799;28;20048;-67
2024/01/20 05:09:24;;;;;;;1999.90;999.90;;;;;;;3.35;68.20;96200.13;5113900;28;20096;-66
2024/01/20 05:11:51;;;;;;;1999.90;999.90;;;;;;;3.32;68.30;96200.16;5113796;28;20079;-65
2024/01/20 05:14:20;;;;;;;1999.90;999.90;;;;;;;3.29;68.00;96209.66;5113674;28;20048;-68
2024/01/20 05:16:47;;;;;;;1999.90;999.90;;;;;;;3.26;68.21;96222.66;5113723;28;20075;-65
2024/01/20 05:19:15;;;;;;;1999.90;999.90;;;;;;;3.20;68.85;96227.91;5113579;28;20043;-67
2024/01/20 05:21:42;;;;;;;1999.90;999.90;;;;;;;3.11;68.86;96231.47;5113889;28;20101;-64
2024/01/20 05:24:10;;;;;;;1999.90;999.90;;;;;;;3.07;69.12;96247.88;5113569;28;20130;-65
2024/01/20 05:26:38;;;;;;;1999.90;999.90;;;;;;;3.07;69.37;96253.03;5113676;28;20489;-68
2024/01/20 05:29:06;;;;;;;1999.90;999.90;;;;;;;2.98;69.13;96268.69;5113629;28;20040;-66
2024/01/20 05:31:34;;;;;;;1999.90;999.90;;;;;;;2.97;69.57;96283.31;5113903;28;20051;-67
2024/01/20 05:34:01;;;;;;;1999.90;999.90;;;;;;;2.93;69.43;96286.81;5113345;28;20056;-67
2024/01/20 05:36:29;;;;;;;1999.90;999.90;;;;;;;2.98;69.12;96286.78;5113411;28;20055;-64
2024/01/20 05:38:56;;;;;;;1999.90;999.90;;;;;;;2.96;69.68;96302.28;5113403;28;20401;-66
2024/01/20 05:41:23;;;;;;;1999.90;999.90;;;;;;;2.92;69.53;96312.69;5113334;28;20079;-67
2024/01/20 05:43:51;;;;;;;1999.90;999.90;;;;;;;2.92;69.00;96317.84;5113503;28;20051;-66
2024/01/20 05:46:21;;;;;;;1999.90;999.90;;;;;;;2.92;69.04;96318.69;5113405;28;20047;-65
2024/01/20 05:48:49;;;;;;;1999.90;999.90;;;;;;;2.83;69.13;96323.97;5113494;28;20050;-67
2024/01/20 05:51:17;;;;;;;1999.90;999.90;;;;;;;2.78;69.29;96319.72;5113123;28;20052;-68
2024/01/20 05:53:44;;;;;;;1999.90;999.90;;;;;;;2.72;68.81;96318.91;5113159;28;20131;-64
2024/01/20 05:56:12;;;;;;;1999.90;999.90;;;;;;;2.70;69.15;96312.91;5113289;28;20044;-66
2024/01/20 05:58:39;;;;;;;1999.90;999.90;;;;;;;2.69;69.35;96317.22;5113284;28;20044;-64
2024/01/20 06:01:06;;;;;;;1999.90;999.90;;;;;;;2.67;69.50;96318.13;5113232;28;20061;-68
2024/01/20 06:03:34;;;;;;;1999.90;999.90;;;;;;;2.60;69.48;96322.47;5113141;28;20773;-67
2024/01/20 06:06:02;;;;;;;1999.90;999.90;;;;;;;2.54;70.07;96331.16;5095203;28;20405;-68
2024/01/20 06:08:29;;;;;;;1999.90;999.90;;;;;;;2.52;70.38;96340.63;5113100;28;20540;-65
2024/01/20 06:10:56;;;;;;;1999.90;999.90;;;;;;;2.51;70.63;96351.84;5113124;28;20066;-65
2024/01/20 06:13:23;;;;;;;1999.90;999.90;;;;;;;2.44;70.79;96351.00;5114221;28;20459;-68
2024/01/20 06:15:51;;;;;;;1999.90;999.90;;;;;;;2.48;71.03;96364.78;5117125;28;20058;-65
2024/01/20 06:18:18;;;;;;;1999.90;999.90;;;;;;;2.43;71.11;96366.53;5116982;28;20486;-64
2024/01/20 06:20:45;;;;;;;1999.90;999.90;;;;;;;2.41;71.18;96371.72;5116995;28;20401;-66
2024/01/20 06:23:13;;;;;;;1999.90;999.90;;;;;;;2.40;71.45;96378.59;5116903;28;20047;-65
2024/01/20 06:25:41;;;;;;;1999.90;999.90;;;;;;;2.38;71.95;96382.91;5116928;28;20193;-66
2024/01/20 06:28:09;;;;;;;1999.90;999.90;;;;;;;2.31;72.18;96382.97;5116806;28;20071;-66
2024/01/20 06:30:37;;;;;;;1999.90;999.90;;;;;;;2.27;73.35;96384.72;5116582;28;20047;-64
2024/01/20 06:33:05;;;;;;;1999.90;999.90;;;;;;;2.20;74.24;96383.06;5116737;28;20044;-69
2024/01/20 06:35:32;;;;;;;1999.90;999.90;;;;;;;2.17;74.99;96390.81;5116746;28;20443;-66
2024/01/20 06:37:59;;;;;;;1999.90;999.90;;;;;;;2.08;75.97;96404.66;5116638;28;20040;-69
2024/01/20 06:40:28;;;;;;;1999.90;999.90;;;;;;;2.05;77.02;96409.84;5116566;28;20043;-70
2024/01/20 06:42:55;;;;;;;1999.90;999.90;;;;;;;1.94;78.27;96417.63;5116570;28;20086;-65
2024/01/20 06:45:22;;;;;;;1999.90;999.90;;;;;;;1.85;79.53;96418.53;5116749;28;20051;-67
2024/01/20 06:47:49;;;;;;;1999.90;999.90;;;;;;;1.77;80.09;96418.56;5116429;28;20044;-67
2024/01/20 06:50:17;;;;;;;1999.90;999.90;;;;;;;1.54;81.35;96411.81;5116346;28;20048;-67
2024/01/20 06:52:44;;;;;;;1999.90;999.90;;;;;;;1.33;82.53;96412.75;5116298;28;20096;-69
2024/01/20 06:55:11;;;;;;;1999.90;999.90;;;;;;;1.25;84.18;96420.50;5098239;28;20553;-64
2024/01/20 06:57:40;;;;;;;1999.90;999.90;;;;;;;1.09;85.19;96427.41;5116236;28;20440;-65
2024/01/20 07:00:08;;;;;;;1999.90;999.90;;;;;;;0.97;86.29;96436.88;5116188;28;20105;-63
2024/01/20 07:02:36;;;;;;;1999.90;999.90;;;;;;;0.90;86.53;96435.16;5116163;28;20464;-64
2024/01/20 07:05:03;;;;;;;1999.90;999.90;;;;;;;0.84;87.18;96437.78;5116155;28;20071;-70
2024/01/20 07:07:30;;;;;;;1999.90;999.90;;;;;;;0.69;87.52;96446.38;5115992;28;20425;-69
2024/01/20 07:10:00;;;;;;;1999.90;999.90;;;;;;;0.55;88.90;96451.50;5115868;28;20462;-66
2024/01/20 07:12:27;;;;;;;1999.90;999.90;;;;;;;0.46;89.17;96460.94;5115972;28;20100;-66
2024/01/20 07:14:57;;;;;;;1999.90;999.90;;;;;;;0.40;89.41;96470.38;5115940;28;20079;-67
2024/01/20 07:17:24;;;;;;;1999.90;999.90;;;;;;;0.30;90.20;96470.34;5115820;28;20600;-65
2024/01/20 07:19:52;;;;;;;1999.90;999.90;;;;;;;0.22;90.32;96478.06;5115940;28;20075;-64
2024/01/20 07:22:19;;;;;;;1999.90;999.90;;;;;;;0.23;90.94;96484.06;5115873;28;20528;-68
2024/01/20 07:24:47;;;;;;;1999.90;999.90;;;;;;;0.17;90.61;96489.19;5115669;28;20104;-67
2024/01/20 07:27:15;;;;;;;1999.90;999.90;;;;;;;0.12;91.27;96491.78;5115668;28;20450;-69
2024/01/20 07:29:44;;;;;;;1999.90;999.90;;;;;;;0.07;91.72;96496.03;5115853;28;20148;-66
2024/01/20 07:32:15;;;;;;;1999.90;999.90;;;;;;;0.01;91.81;96499.47;5115704;28;20079;-63
2024/01/20 07:34:43;;;;;;;1999.90;999.90;;;;;;;-0.05;92.11;96502.88;5115647;28;20059;-66
2024/01/20 07:37:11;;;;;;;1999.90;999.90;;;;;;;-0.03;92.35;96513.16;5115488;28;20126;-68
2024/01/20 07:39:38;;;;;;;1999.90;999.90;;;;;;;-0.01;92.27;96522.59;5115403;28;20043;-65
2024/01/20 07:42:10;;;;;;;1999.90;999.90;;;;;;;-0.07;92.84;96535.44;5115481;28;20055;-61
2024/01/20 07:44:43;;;;;;;1999.90;999.90;;;;;;;-0.11;92.75;96535.41;5115375;28;20040;-65
2024/01/20 07:47:14;;;;;;;1999.90;999.90;;;;;;;-0.04;93.01;96543.16;5115223;28;20093;-68
2024/01/20 07:49:41;;;;;;;1999.90;999.90;;;;;;;-0.06;93.07;96537.13;5115264;28;20048;-67
2024/01/20 07:52:09;;;;;;;1999.90;999.90;;;;;;;-0.08;93.33;96532.84;5114895;28;20058;-66
2024/01/20 07:54:37;;;;;;;1999.90;999.90;;;;;;;-0.12;93.90;96534.53;5115045;28;20126;-69
2024/01/20 07:57:09;;;;;;;1999.90;999.90;;;;;;;-0.13;93.56;96543.13;5115126;28;20408;-62
2024/01/20 07:59:37;;;;;;;1999.90;999.90;;;;;;;-0.16;94.12;96559.41;5115022;28;20126;-65
2024/01/20 08:02:06;;;;;;;1999.90;999.90;;;;;;;-0.13;94.09;96556.84;5114923;28;20056;-66
2024/01/20 08:04:36;;;;;;;1999.90;999.90;;;;;;;-0.16;94.18;96564.53;5114928;28;20052;-69
2024/01/20 08:07:05;;;;;;;1999.90;999.90;;;;;;;-0.15;94.44;96568.81;5114782;28;20386;-66
2024/01/20 08:09:33;;;;;;;1999.90;999.90;;;;;;;-0.21;95.01;96555.09;5114893;28;20101;-69
2024/01/20 08:12:04;;;;;;;1999.90;999.90;;;;;;;-0.19;95.15;96559.38;5114743;28;20101;-68
2024/01/20 08:14:32;;;;;;;1999.90;999.90;;;;;;;-0.18;94.84;96571.38;5115355;28;20043;-66
2024/01/20 08:17:02;;;;;;;1999.90;999.90;;;;;;;-0.16;95.05;96581.69;5114800;28;20086;-67
2024/01/20 08:19:30;;;;;;;1999.90;999.90;;;;;;;-0.26;95.33;96584.22;5114642;28;20039;-64
2024/01/20 08:22:00;;;;;;;1999.90;999.90;;;;;;;-0.23;95.89;96593.66;5096772;28;20048;-66
2024/01/20 08:24:28;;;;;;;1999.90;999.90;;;;;;;-0.17;95.99;96603.09;5114794;28;20146;-68
2024/01/20 08:26:55;;;;;;;1999.90;999.90;;;;;;;-0.18;96.08;96607.38;5114811;28;20043;-65
2024/01/20 08:29:23;;;;;;;1999.90;999.90;;;;;;;-0.19;96.25;96604.81;5114772;28;20052;-65
2024/01/20 08:31:53;;;;;;;1999.90;999.90;;;;;;;-0.15;96.11;96611.72;5114301;28;20052;-69
2024/01/20 08:34:20;;;;;;;1999.90;999.90;;;;;;;-0.27;95.44;96620.22;5114327;28;20053;-62
2024/01/20 08:36:48;;;;;;;1999.90;999.90;;;;;;;-0.22;96.05;96625.34;5113771;28;20050;-63
2024/01/20 08:39:22;;;;;;;1999.90;999.90;;;;;;;-0.19;95.91;96633.97;5114338;28;20050;-65
2024/01/20 08:41:50;;;;;;;1999.90;999.90;;;;;;;-0.14;95.49;96641.72;5114171;28;20128;-67
2024/01/20 08:44:18;;;;;;;1999.90;999.90;;;;;;;-0.27;95.76;96635.63;5114089;28;20078;-65
2024/01/20 08:46:48;;;;;;;1999.90;999.90;;;;;;;-0.26;96.01;96638.22;5114154;28;20054;-70
2024/01/20 08:49:16;;;;;;;1999.90;999.90;;;;;;;-0.29;96.32;96640.75;5114131;28;20409;-69
2024/01/20 08:51:44;;;;;;;1999.90;999.90;;;;;;;-0.24;96.47;96657.94;5113651;28;20051;-64
2024/01/20 08:54:13;;;;;;;1999.90;999.90;;;;;;;-0.24;96.60;96655.34;5114036;28;20126;-65
2024/01/20 08:56:43;;;;;;;1999.90;999.90;;;;;;;-0.17;96.28;96649.41;5113932;28;20058;-66
2024/01/20 08:59:11;;;;;;;1999.90;999.90;;;;;;;-0.22;95.63;96659.66;5113724;28;20087;-63
2024/01/20 09:01:39;;;;;;;1999.90;999.90;;;;;;;-0.23;95.94;96660.50;5113879;28;20131;-63
2024/01/20 09:04:07;;;;;;;1999.90;999.90;;;;;;;-0.22;96.09;96657.09;5113813;28;20062;-68
2024/01/20 09:06:34;;;;;;;1999.90;999.90;;;;;;;-0.18;96.34;96671.66;5113831;28;20040;-67
2024/01/20 09:09:01;;;;;;;1999.90;999.90;;;;;;;-0.22;95.82;96667.38;5113814;28;20557;-67
2024/01/20 09:11:29;;;;;;;1999.90;999.90;;;;;;;-0.20;95.68;96665.69;5113621;28;20115;-65
2024/01/20 09:13:58;;;;;;;1999.90;999.90;;;;;;;-0.28;94.69;96675.91;5113719;28;20043;-65
2024/01/20 09:16:26;;;;;;;1999.90;999.90;;;;;;;-0.30;95.53;96679.31;5113715;28;20043;-66
2024/01/20 09:18:53;;;;;;;1999.90;999.90;;;;;;;-0.36;94.72;96681.84;5113808;28;20521;-66
2024/01/20 09:21:20;;;;;;;1999.90;999.90;;;;;;;-0.36;95.00;96690.41;5113592;28;20043;-67
2024/01/20 09:23:48;;;;;;;1999.90;999.90;;;;;;;-0.32;94.35;96699.88;5113922;28;20043;-65
2024/01/20 09:26:15;;;;;;;1999.90;999.90;;;;;;;-0.35;94.97;96697.28;5113512;28;20048;-69
2024/01/20 09:28:43;;;;;;;1999.90;999.90;;;;;;;-0.38;94.53;96699.81;5113755;28;20058;-66
2024/01/20 09:31:11;;;;;;;1999.90;999.90;;;;;;;-0.44;94.62;96708.34;5113428;28;20526;-63
2024/01/20 09:33:39;;;;;;;1999.90;999.90;;;;;;;-0.48;95.08;96713.47;5113621;28;20073;-62
2024/01/20 09:36:07;;;;;;;1999.90;999.90;;;;;;;-0.52;95.25;96720.25;5113487;28;20050;-68
2024/01/20 09:38:34;;;;;;;1999.90;999.90;;;;;;;-0.55;96.04;96722.81;5113501;28;20047;-63
2024/01/20 09:41:02;;;;;;;1999.90;999.90;;;;;;;-0.56;96.10;96726.22;5113625;28;20104;-66
2024/01/20 09:43:31;;;;;;;1999.90;999.90;;;;;;;-0.59;96.12;96721.94;5113714;28;20481;-65
2024/01/20 09:46:07;;;;;;;1999.90;999.90;;;;;;;-0.59;96.63;96721.94;5113440;28;20135;-66
2024/01/20 09:48:37;;;;;;;1999.90;999.90;;;;;;;-0.64;96.93;96721.00;5114882;28;20473;-67
2024/01/20 09:51:07;;;;;;;1999.90;999.90;;;;;;;-0.63;96.93;96725.31;5117711;28;20104;-65
2024/01/20 09:53:39;;;;;;;1999.90;999.90;;;;;;;-0.69;96.48;96727.84;5117707;28;20504;-64
2024/01/20 09:56:07;;;;;;;1999.90;999.90;;;;;;;-0.71;96.96;96726.94;5117405;28;20532;-65
2024/01/20 09:58:36;;;;;;;1999.90;999.90;;;;;;;-0.72;96.41;96730.38;5117365;28;20052;-68
2024/01/20 10:01:05;;;;;;;1999.90;999.90;;;;;;;-0.71;96.97;96735.53;5117371;28;20058;-65
2024/01/20 10:03:38;;;;;;;1999.90;999.90;;;;;;;-0.73;96.57;96736.38;5117251;28;20559;-68
2024/01/20 10:06:06;;;;;;;1999.90;999.90;;;;;;;-0.80;96.85;96727.72;5117441;28;20071;-66
2024/01/20 10:08:36;;;;;;;1999.90;999.90;;;;;;;-0.73;96.99;96742.34;5117430;28;20135;-67
2024/01/20 10:11:04;;;;;;;1999.90;999.90;;;;;;;-0.74;97.37;96732.94;5117023;28;20055;-67
2024/01/20 10:13:31;;;;;;;1999.90;999.90;;;;;;;-0.71;97.63;96732.09;5117097;28;20050;-64
2024/01/20 10:15:59;;;;;;;1999.90;999.90;;;;;;;-0.70;97.66;96732.09;5117079;28;20071;-67
2024/01/20 10:18:26;;;;;;;1999.90;999.90;;;;;;;-0.71;97.98;96735.53;5098828;28;20489;-64
2024/01/20 10:21:03;;;;;;;1999.90;999.90;;;;;;;-0.75;96.46;96736.34;5116889;28;20134;-67
2024/01/20 10:23:31;;;;;;;1999.90;999.90;;;;;;;-0.73;97.03;96742.34;5117007;28;20700;-68
2024/01/20 10:26:03;;;;;;;1999.90;999.90;;;;;;;-0.71;96.98;96739.78;5116968;28;20127;-67
2024/01/20 10:28:30;;;;;;;1999.90;999.90;;;;;;;-0.64;97.10;96745.00;5116858;28;20100;-62
2024/01/20 10:30:57;;;;;;;1999.90;999.90;;;;;;;-0.59;96.62;96747.63;5116940;28;20083;-62
2024/01/20 10:33:25;;;;;;;1999.90;999.90;;;;;;;-0.65;96.34;96757.84;5116660;28;20051;-67
2024/01/20 10:35:52;;;;;;;1999.90;999.90;;;;;;;-0.63;97.11;96766.44;5116635;28;20112;-69
2024/01/20 10:38:22;;;;;;;1999.90;999.90;;;;;;;-0.64;97.43;96772.41;5116763;28;20092;-64
2024/01/20 10:40:52;;;;;;;1999.90;999.90;;;;;;;-0.67;96.73;96774.94;5116633;28;20131;-65
2024/01/20 10:43:20;;;;;;;1999.90;999.90;;;;;;;-0.71;96.81;96766.38;5116606;28;20130;-63
2024/01/20 10:45:54;;;;;;;1999.90;999.90;;;;;;;-0.66;97.13;96771.56;5116528;28;20072;-65
2024/01/20 10:48:26;;;;;;;1999.90;999.90;;;;;;;-0.61;97.39;96767.31;5116412;28;20508;-64
2024/01/20 10:50:59;;;;;;;1999.90;999.90;;;;;;;-0.61;96.59;96767.31;5116390;28;20044;-67
2024/01/20 10:53:29;;;;;;;1999.90;999.90;;;;;;;-0.61;96.67;96761.31;5115217;28;20406;-63
2024/01/20 10:55:58;;;;;;;1999.90;999.90;;;;;;;-0.58;97.13;96764.78;5115121;28;20043;-63
2024/01/20 10:58:44;;;;;;;1999.90;999.90;;;;;;;-0.59;96.63;96764.75;5114983;28;20047;-63
2024/01/20 11:01:12;;;;;;;1999.90;999.90;;;;;;;-0.51;96.45;96768.28;5115120;28;20104;-66
2024/01/20 11:03:40;;;;;;;1999.90;999.90;;;;;;;-0.57;95.63;96768.22;5115008;28;20044;-65